sensor_id;sensor_type;location;lat;lon;timestamp;P1;durP1;ratioP1;P2;durP2;ratioP2
84021;SDS011;74108;48.636;9.492;2024-01-07T00:00:59;14.57;;;7.88;;
84021;SDS011;74108;48.636;9.492;2024-01-07T00:03:25;14.38;;;8.18;;
84021;SDS011;74108;48.636;9.492;2024-01-07T00:05:51;14.48;;;7.45;;
84021;SDS011;74108;48.636;9.492;2024-01-07T00:08:16;12.63;;;7.38;;
84021;SDS011;74108;48.636;9.492;2024-01-07T00:10:41;13.43;;;7.28;;
84021;SDS011;74108;48.636;9.492;2024-01-07T00:13:07;13.45;;;7.78;;
84021;SDS011;74108;48.636;9.492;2024-01-07T00:15:32;13.07;;;7.07;;
84021;SDS011;74108;48.636;9.492;2024-01-07T00:17:58;11.88;;;6.93;;
84021;SDS011;74108;48.636;9.492;2024-01-07T00:20:23;14.00;;;7.22;;
84021;SDS011;74108;48.636;9.492;2024-01-07T00:22:49;13.02;;;6.95;;
84021;SDS011;74108;48.636;9.492;2024-01-07T00:25:14;13.25;;;7.28;;
84021;SDS011;74108;48.636;9.492;2024-01-07T00:27:39;13.32;;;7.28;;
84021;SDS011;74108;48.636;9.492;2024-01-07T00:30:05;12.05;;;6.53;;
84021;SDS011;74108;48.636;9.492;2024-01-07T00:32:31;12.77;;;7.28;;
84021;SDS011;74108;48.636;9.492;2024-01-07T00:34:56;12.98;;;6.72;;
84021;SDS011;74108;48.636;9.492;2024-01-07T00:37:21;12.32;;;7.38;;
84021;SDS011;74108;48.636;9.492;2024-01-07T00:39:47;12.45;;;7.13;;
84021;SDS011;74108;48.636;9.492;2024-01-07T00:42:12;13.25;;;7.32;;
84021;SDS011;74108;48.636;9.492;2024-01-07T00:44:38;13.63;;;7.30;;
84021;SDS011;74108;48.636;9.492;2024-01-07T00:47:03;16.33;;;8.15;;
84021;SDS011;74108;48.636;9.492;2024-01-07T00:49:31;11.95;;;6.60;;
84021;SDS011;74108;48.636;9.492;2024-01-07T00:51:57;13.20;;;6.93;;
84021;SDS011;74108;48.636;9.492;2024-01-07T00:54:22;13.52;;;7.13;;
84021;SDS011;74108;48.636;9.492;2024-01-07T00:56:47;11.73;;;6.80;;
84021;SDS011;74108;48.636;9.492;2024-01-07T00:59:13;13.27;;;6.95;;
84021;SDS011;74108;48.636;9.492;2024-01-07T01:01:38;13.10;;;7.00;;
84021;SDS011;74108;48.636;9.492;2024-01-07T01:04:03;13.07;;;7.10;;
84021;SDS011;74108;48.636;9.492;2024-01-07T01:06:29;14.75;;;7.50;;
84021;SDS011;74108;48.636;9.492;2024-01-07T01:08:54;13.45;;;7.35;;
84021;SDS011;74108;48.636;9.492;2024-01-07T01:11:20;12.82;;;6.57;;
84021;SDS011;74108;48.636;9.492;2024-01-07T01:13:45;15.25;;;7.90;;
84021;SDS011;74108;48.636;9.492;2024-01-07T01:16:10;13.30;;;8.05;;
84021;SDS011;74108;48.636;9.492;2024-01-07T01:18:36;13.75;;;7.20;;
84021;SDS011;74108;48.636;9.492;2024-01-07T01:21:01;14.60;;;7.65;;
84021;SDS011;74108;48.636;9.492;2024-01-07T01:23:26;15.05;;;7.47;;
84021;SDS011;74108;48.636;9.492;2024-01-07T01:25:52;14.75;;;7.40;;
84021;SDS011;74108;48.636;9.492;2024-01-07T01:28:17;16.25;;;7.72;;
84021;SDS011;74108;48.636;9.492;2024-01-07T01:30:42;14.57;;;7.07;;
84021;SDS011;74108;48.636;9.492;2024-01-07T01:33:08;14.32;;;7.85;;
84021;SDS011;74108;48.636;9.492;2024-01-07T01:35:33;13.90;;;7.85;;
84021;SDS011;74108;48.636;9.492;2024-01-07T01:37:59;13.45;;;7.10;;
84021;SDS011;74108;48.636;9.492;2024-01-07T01:40:24;13.80;;;7.68;;
84021;SDS011;74108;48.636;9.492;2024-01-07T01:42:49;16.05;;;8.35;;
84021;SDS011;74108;48.636;9.492;2024-01-07T01:45:15;13.77;;;7.65;;
84021;SDS011;74108;48.636;9.492;2024-01-07T01:47:40;14.10;;;6.97;;
84021;SDS011;74108;48.636;9.492;2024-01-07T01:50:07;14.23;;;7.63;;
84021;SDS011;74108;48.636;9.492;2024-01-07T01:52:35;15.88;;;7.43;;
84021;SDS011;74108;48.636;9.492;2024-01-07T01:55:01;14.88;;;8.32;;
84021;SDS011;74108;48.636;9.492;2024-01-07T01:57:28;16.83;;;7.20;;
84021;SDS011;74108;48.636;9.492;2024-01-07T02:00:02;13.82;;;7.32;;
84021;SDS011;74108;48.636;9.492;2024-01-07T02:02:30;15.50;;;7.30;;
84021;SDS011;74108;48.636;9.492;2024-01-07T02:04:57;12.73;;;6.97;;
84021;SDS011;74108;48.636;9.492;2024-01-07T02:07:24;14.07;;;7.10;;
84021;SDS011;74108;48.636;9.492;2024-01-07T02:09:49;13.23;;;7.50;;
84021;SDS011;74108;48.636;9.492;2024-01-07T02:12:15;15.77;;;7.82;;
84021;SDS011;74108;48.636;9.492;2024-01-07T02:14:40;12.73;;;6.78;;
84021;SDS011;74108;48.636;9.492;2024-01-07T02:17:06;14.50;;;7.75;;
84021;SDS011;74108;48.636;9.492;2024-01-07T02:19:32;14.45;;;7.05;;
84021;SDS011;74108;48.636;9.492;2024-01-07T02:21:57;14.40;;;7.95;;
84021;SDS011;74108;48.636;9.492;2024-01-07T02:24:22;13.45;;;7.35;;
84021;SDS011;74108;48.636;9.492;2024-01-07T02:26:48;14.10;;;7.40;;
84021;SDS011;74108;48.636;9.492;2024-01-07T02:29:13;18.67;;;9.27;;
84021;SDS011;74108;48.636;9.492;2024-01-07T02:31:39;14.27;;;7.85;;
84021;SDS011;74108;48.636;9.492;2024-01-07T02:34:04;15.43;;;7.45;;
84021;SDS011;74108;48.636;9.492;2024-01-07T02:36:29;16.23;;;8.05;;
84021;SDS011;74108;48.636;9.492;2024-01-07T02:38:55;16.23;;;8.73;;
84021;SDS011;74108;48.636;9.492;2024-01-07T02:41:20;15.27;;;7.90;;
84021;SDS011;74108;48.636;9.492;2024-01-07T02:43:50;16.77;;;8.27;;
84021;SDS011;74108;48.636;9.492;2024-01-07T02:46:16;16.75;;;7.95;;
84021;SDS011;74108;48.636;9.492;2024-01-07T02:48:41;12.45;;;7.10;;
84021;SDS011;74108;48.636;9.492;2024-01-07T02:51:07;12.55;;;6.53;;
84021;SDS011;74108;48.636;9.492;2024-01-07T02:53:33;13.60;;;7.25;;
84021;SDS011;74108;48.636;9.492;2024-01-07T02:55:59;15.95;;;8.05;;
84021;SDS011;74108;48.636;9.492;2024-01-07T02:58:24;14.40;;;7.65;;
84021;SDS011;74108;48.636;9.492;2024-01-07T03:00:50;15.75;;;7.75;;
84021;SDS011;74108;48.636;9.492;2024-01-07T03:03:15;16.33;;;8.20;;
84021;SDS011;74108;48.636;9.492;2024-01-07T03:05:41;15.13;;;7.45;;
84021;SDS011;74108;48.636;9.492;2024-01-07T03:08:08;14.80;;;8.25;;
84021;SDS011;74108;48.636;9.492;2024-01-07T03:10:34;15.88;;;7.47;;
84021;SDS011;74108;48.636;9.492;2024-01-07T03:13:00;15.40;;;7.95;;
84021;SDS011;74108;48.636;9.492;2024-01-07T03:15:26;16.35;;;7.85;;
84021;SDS011;74108;48.636;9.492;2024-01-07T03:17:51;13.68;;;7.70;;
84021;SDS011;74108;48.636;9.492;2024-01-07T03:20:16;19.90;;;9.02;;
84021;SDS011;74108;48.636;9.492;2024-01-07T03:22:42;16.58;;;8.43;;
84021;SDS011;74108;48.636;9.492;2024-01-07T03:25:07;14.85;;;8.32;;
84021;SDS011;74108;48.636;9.492;2024-01-07T03:27:33;18.00;;;8.23;;
84021;SDS011;74108;48.636;9.492;2024-01-07T03:29:58;16.38;;;7.90;;
84021;SDS011;74108;48.636;9.492;2024-01-07T03:32:24;16.45;;;8.57;;
84021;SDS011;74108;48.636;9.492;2024-01-07T03:34:49;15.70;;;7.90;;
84021;SDS011;74108;48.636;9.492;2024-01-07T03:37:14;15.55;;;7.70;;
84021;SDS011;74108;48.636;9.492;2024-01-07T03:39:43;15.18;;;7.95;;
84021;SDS011;74108;48.636;9.492;2024-01-07T03:42:09;13.73;;;7.40;;
84021;SDS011;74108;48.636;9.492;2024-01-07T03:44:39;16.13;;;8.10;;
84021;SDS011;74108;48.636;9.492;2024-01-07T03:47:05;17.17;;;8.15;;
84021;SDS011;74108;48.636;9.492;2024-01-07T03:49:31;15.52;;;8.27;;
84021;SDS011;74108;48.636;9.492;2024-01-07T03:51:56;15.52;;;8.35;;
84021;SDS011;74108;48.636;9.492;2024-01-07T03:54:22;16.67;;;8.57;;
84021;SDS011;74108;48.636;9.492;2024-01-07T03:56:47;16.80;;;8.18;;
84021;SDS011;74108;48.636;9.492;2024-01-07T03:59:13;16.27;;;8.73;;
84021;SDS011;74108;48.636;9.492;2024-01-07T04:01:38;15.60;;;7.95;;
84021;SDS011;74108;48.636;9.492;2024-01-07T04:04:03;15.50;;;7.90;;
84021;SDS011;74108;48.636;9.492;2024-01-07T04:06:29;15.60;;;8.00;;
84021;SDS011;74108;48.636;9.492;2024-01-07T04:08:54;17.55;;;9.00;;
84021;SDS011;74108;48.636;9.492;2024-01-07T04:11:20;14.80;;;7.90;;
84021;SDS011;74108;48.636;9.492;2024-01-07T04:13:47;15.30;;;7.72;;
84021;SDS011;74108;48.636;9.492;2024-01-07T04:16:16;17.50;;;8.20;;
84021;SDS011;74108;48.636;9.492;2024-01-07T04:18:46;15.13;;;8.40;;
84021;SDS011;74108;48.636;9.492;2024-01-07T04:21:11;15.80;;;7.80;;
84021;SDS011;74108;48.636;9.492;2024-01-07T04:23:40;14.80;;;8.02;;
84021;SDS011;74108;48.636;9.492;2024-01-07T04:26:09;15.23;;;7.45;;
84021;SDS011;74108;48.636;9.492;2024-01-07T04:28:35;14.77;;;7.25;;
84021;SDS011;74108;48.636;9.492;2024-01-07T04:31:00;14.05;;;7.45;;
84021;SDS011;74108;48.636;9.492;2024-01-07T04:33:25;15.80;;;8.50;;
84021;SDS011;74108;48.636;9.492;2024-01-07T04:35:51;17.58;;;8.20;;
84021;SDS011;74108;48.636;9.492;2024-01-07T04:38:16;16.75;;;8.38;;
84021;SDS011;74108;48.636;9.492;2024-01-07T04:40:42;14.15;;;7.68;;
84021;SDS011;74108;48.636;9.492;2024-01-07T04:43:09;14.48;;;8.13;;
84021;SDS011;74108;48.636;9.492;2024-01-07T04:45:35;14.88;;;7.60;;
84021;SDS011;74108;48.636;9.492;2024-01-07T04:48:01;15.85;;;8.05;;
84021;SDS011;74108;48.636;9.492;2024-01-07T04:50:26;17.48;;;8.48;;
84021;SDS011;74108;48.636;9.492;2024-01-07T04:52:52;19.08;;;8.95;;
84021;SDS011;74108;48.636;9.492;2024-01-07T04:55:17;13.73;;;7.65;;
84021;SDS011;74108;48.636;9.492;2024-01-07T04:57:44;13.98;;;7.80;;
84021;SDS011;74108;48.636;9.492;2024-01-07T05:00:09;15.40;;;7.80;;
84021;SDS011;74108;48.636;9.492;2024-01-07T05:02:36;14.23;;;8.15;;
84021;SDS011;74108;48.636;9.492;2024-01-07T05:05:01;16.00;;;8.52;;
84021;SDS011;74108;48.636;9.492;2024-01-07T05:07:26;14.48;;;7.47;;
84021;SDS011;74108;48.636;9.492;2024-01-07T05:09:52;14.85;;;8.05;;
84021;SDS011;74108;48.636;9.492;2024-01-07T05:12:17;15.13;;;8.15;;
84021;SDS011;74108;48.636;9.492;2024-01-07T05:14:43;16.48;;;8.32;;
84021;SDS011;74108;48.636;9.492;2024-01-07T05:17:09;17.08;;;8.45;;
84021;SDS011;74108;48.636;9.492;2024-01-07T05:19:34;16.05;;;8.18;;
84021;SDS011;74108;48.636;9.492;2024-01-07T05:22:00;18.55;;;9.75;;
84021;SDS011;74108;48.636;9.492;2024-01-07T05:24:25;17.67;;;9.05;;
84021;SDS011;74108;48.636;9.492;2024-01-07T05:26:51;16.02;;;8.30;;
84021;SDS011;74108;48.636;9.492;2024-01-07T05:29:16;16.13;;;8.80;;
84021;SDS011;74108;48.636;9.492;2024-01-07T05:31:41;13.65;;;7.97;;
84021;SDS011;74108;48.636;9.492;2024-01-07T05:34:07;15.43;;;8.55;;
84021;SDS011;74108;48.636;9.492;2024-01-07T05:36:32;17.77;;;8.73;;
84021;SDS011;74108;48.636;9.492;2024-01-07T05:38:58;13.60;;;7.38;;
84021;SDS011;74108;48.636;9.492;2024-01-07T05:41:25;13.77;;;7.75;;
84021;SDS011;74108;48.636;9.492;2024-01-07T05:43:52;13.82;;;7.63;;
84021;SDS011;74108;48.636;9.492;2024-01-07T05:46:18;14.25;;;7.97;;
84021;SDS011;74108;48.636;9.492;2024-01-07T05:48:44;12.77;;;7.28;;
84021;SDS011;74108;48.636;9.492;2024-01-07T05:51:11;14.32;;;7.90;;
84021;SDS011;74108;48.636;9.492;2024-01-07T05:53:36;16.05;;;8.65;;
84021;SDS011;74108;48.636;9.492;2024-01-07T05:56:02;15.18;;;7.95;;
84021;SDS011;74108;48.636;9.492;2024-01-07T05:58:34;15.52;;;8.23;;
84021;SDS011;74108;48.636;9.492;2024-01-07T06:00:59;16.85;;;9.15;;
84021;SDS011;74108;48.636;9.492;2024-01-07T06:03:25;15.52;;;8.68;;
84021;SDS011;74108;48.636;9.492;2024-01-07T06:05:51;15.80;;;7.88;;
84021;SDS011;74108;48.636;9.492;2024-01-07T06:08:16;16.27;;;8.73;;
84021;SDS011;74108;48.636;9.492;2024-01-07T06:10:42;14.85;;;7.97;;
84021;SDS011;74108;48.636;9.492;2024-01-07T06:13:09;16.02;;;8.20;;
84021;SDS011;74108;48.636;9.492;2024-01-07T06:15:34;15.88;;;8.10;;
84021;SDS011;74108;48.636;9.492;2024-01-07T06:18:00;16.73;;;7.75;;
84021;SDS011;74108;48.636;9.492;2024-01-07T06:20:25;13.68;;;8.13;;
84021;SDS011;74108;48.636;9.492;2024-01-07T06:22:50;16.90;;;7.85;;
84021;SDS011;74108;48.636;9.492;2024-01-07T06:25:16;15.68;;;8.10;;
84021;SDS011;74108;48.636;9.492;2024-01-07T06:27:42;14.10;;;8.52;;
84021;SDS011;74108;48.636;9.492;2024-01-07T06:30:07;17.13;;;7.93;;
84021;SDS011;74108;48.636;9.492;2024-01-07T06:32:33;14.82;;;8.48;;
84021;SDS011;74108;48.636;9.492;2024-01-07T06:34:59;16.25;;;8.90;;
84021;SDS011;74108;48.636;9.492;2024-01-07T06:37:25;13.43;;;7.50;;
84021;SDS011;74108;48.636;9.492;2024-01-07T06:39:50;14.30;;;8.18;;
84021;SDS011;74108;48.636;9.492;2024-01-07T06:42:16;14.75;;;8.23;;
84021;SDS011;74108;48.636;9.492;2024-01-07T06:44:42;15.05;;;8.00;;
84021;SDS011;74108;48.636;9.492;2024-01-07T06:47:07;17.00;;;8.82;;
84021;SDS011;74108;48.636;9.492;2024-01-07T06:49:33;15.48;;;8.30;;
84021;SDS011;74108;48.636;9.492;2024-01-07T06:52:00;16.77;;;8.00;;
84021;SDS011;74108;48.636;9.492;2024-01-07T06:54:28;17.02;;;8.70;;
84021;SDS011;74108;48.636;9.492;2024-01-07T06:56:53;13.30;;;7.65;;
84021;SDS011;74108;48.636;9.492;2024-01-07T06:59:19;14.77;;;7.97;;
84021;SDS011;74108;48.636;9.492;2024-01-07T07:01:44;15.98;;;9.00;;
84021;SDS011;74108;48.636;9.492;2024-01-07T07:04:10;15.52;;;8.88;;
84021;SDS011;74108;48.636;9.492;2024-01-07T07:06:39;17.02;;;8.55;;
84021;SDS011;74108;48.636;9.492;2024-01-07T07:09:04;16.15;;;9.02;;
84021;SDS011;74108;48.636;9.492;2024-01-07T07:11:30;15.30;;;8.48;;
84021;SDS011;74108;48.636;9.492;2024-01-07T07:13:56;17.98;;;9.27;;
84021;SDS011;74108;48.636;9.492;2024-01-07T07:16:31;15.18;;;8.77;;
84021;SDS011;74108;48.636;9.492;2024-01-07T07:19:02;15.90;;;8.15;;
84021;SDS011;74108;48.636;9.492;2024-01-07T07:21:28;18.38;;;9.05;;
84021;SDS011;74108;48.636;9.492;2024-01-07T07:23:54;16.05;;;8.80;;
84021;SDS011;74108;48.636;9.492;2024-01-07T07:26:19;13.40;;;8.15;;
84021;SDS011;74108;48.636;9.492;2024-01-07T07:28:48;17.17;;;8.52;;
84021;SDS011;74108;48.636;9.492;2024-01-07T07:31:17;13.65;;;8.00;;
84021;SDS011;74108;48.636;9.492;2024-01-07T07:33:42;15.60;;;8.10;;
84021;SDS011;74108;48.636;9.492;2024-01-07T07:36:08;15.48;;;7.70;;
84021;SDS011;74108;48.636;9.492;2024-01-07T07:38:34;15.15;;;7.90;;
84021;SDS011;74108;48.636;9.492;2024-01-07T07:41:00;13.60;;;7.30;;
84021;SDS011;74108;48.636;9.492;2024-01-07T07:43:26;16.20;;;9.32;;
84021;SDS011;74108;48.636;9.492;2024-01-07T07:45:52;14.40;;;8.02;;
84021;SDS011;74108;48.636;9.492;2024-01-07T07:48:18;17.05;;;8.25;;
84021;SDS011;74108;48.636;9.492;2024-01-07T07:50:44;15.27;;;8.20;;
84021;SDS011;74108;48.636;9.492;2024-01-07T07:53:10;14.32;;;7.63;;
84021;SDS011;74108;48.636;9.492;2024-01-07T07:55:43;15.00;;;8.23;;
84021;SDS011;74108;48.636;9.492;2024-01-07T07:58:19;12.90;;;7.43;;
84021;SDS011;74108;48.636;9.492;2024-01-07T08:00:56;15.43;;;7.93;;
84021;SDS011;74108;48.636;9.492;2024-01-07T08:03:26;13.40;;;8.30;;
84021;SDS011;74108;48.636;9.492;2024-01-07T08:05:55;14.10;;;8.23;;
84021;SDS011;74108;48.636;9.492;2024-01-07T08:08:27;19.02;;;8.18;;
84021;SDS011;74108;48.636;9.492;2024-01-07T08:10:58;12.70;;;7.28;;
84021;SDS011;74108;48.636;9.492;2024-01-07T08:13:23;13.18;;;7.53;;
84021;SDS011;74108;48.636;9.492;2024-01-07T08:15:49;12.35;;;7.30;;
84021;SDS011;74108;48.636;9.492;2024-01-07T08:18:17;13.88;;;7.50;;
84021;SDS011;74108;48.636;9.492;2024-01-07T08:20:56;12.90;;;7.20;;
84021;SDS011;74108;48.636;9.492;2024-01-07T08:23:21;13.63;;;6.53;;
84021;SDS011;74108;48.636;9.492;2024-01-07T08:25:47;13.07;;;6.70;;
84021;SDS011;74108;48.636;9.492;2024-01-07T08:28:13;11.57;;;7.05;;
84021;SDS011;74108;48.636;9.492;2024-01-07T08:30:39;11.25;;;6.65;;
84021;SDS011;74108;48.636;9.492;2024-01-07T08:33:04;13.20;;;6.30;;
84021;SDS011;74108;48.636;9.492;2024-01-07T08:35:31;12.57;;;6.90;;
84021;SDS011;74108;48.636;9.492;2024-01-07T08:37:57;13.27;;;7.00;;
84021;SDS011;74108;48.636;9.492;2024-01-07T08:40:26;13.10;;;6.60;;
84021;SDS011;74108;48.636;9.492;2024-01-07T08:42:51;11.88;;;6.28;;
84021;SDS011;74108;48.636;9.492;2024-01-07T08:45:20;12.82;;;6.43;;
84021;SDS011;74108;48.636;9.492;2024-01-07T08:47:45;11.93;;;6.75;;
84021;SDS011;74108;48.636;9.492;2024-01-07T08:50:12;12.55;;;6.90;;
84021;SDS011;74108;48.636;9.492;2024-01-07T08:52:41;11.27;;;6.00;;
84021;SDS011;74108;48.636;9.492;2024-01-07T08:55:09;10.95;;;6.13;;
84021;SDS011;74108;48.636;9.492;2024-01-07T08:57:36;11.32;;;6.40;;
84021;SDS011;74108;48.636;9.492;2024-01-07T09:00:06;12.93;;;6.28;;
84021;SDS011;74108;48.636;9.492;2024-01-07T09:02:37;12.75;;;6.50;;
84021;SDS011;74108;48.636;9.492;2024-01-07T09:05:05;13.85;;;6.57;;
84021;SDS011;74108;48.636;9.492;2024-01-07T09:07:34;11.68;;;6.20;;
84021;SDS011;74108;48.636;9.492;2024-01-07T09:10:03;10.38;;;5.95;;
84021;SDS011;74108;48.636;9.492;2024-01-07T09:12:34;12.60;;;6.72;;
84021;SDS011;74108;48.636;9.492;2024-01-07T09:14:59;13.77;;;6.05;;
84021;SDS011;74108;48.636;9.492;2024-01-07T09:17:31;12.40;;;6.50;;
84021;SDS011;74108;48.636;9.492;2024-01-07T09:20:07;14.23;;;7.30;;
84021;SDS011;74108;48.636;9.492;2024-01-07T09:22:33;12.75;;;6.85;;
84021;SDS011;74108;48.636;9.492;2024-01-07T09:25:00;14.02;;;6.40;;
84021;SDS011;74108;48.636;9.492;2024-01-07T09:27:28;12.88;;;6.18;;
84021;SDS011;74108;48.636;9.492;2024-01-07T09:29:53;10.70;;;6.03;;
84021;SDS011;74108;48.636;9.492;2024-01-07T09:32:19;11.60;;;5.90;;
84021;SDS011;74108;48.636;9.492;2024-01-07T09:34:44;12.05;;;6.03;;
84021;SDS011;74108;48.636;9.492;2024-01-07T09:37:09;11.77;;;6.00;;
84021;SDS011;74108;48.636;9.492;2024-01-07T09:39:38;10.30;;;5.55;;
84021;SDS011;74108;48.636;9.492;2024-01-07T09:42:05;11.05;;;6.20;;
84021;SDS011;74108;48.636;9.492;2024-01-07T09:44:42;12.77;;;6.50;;
84021;SDS011;74108;48.636;9.492;2024-01-07T09:47:11;11.15;;;5.82;;
84021;SDS011;74108;48.636;9.492;2024-01-07T09:49:38;10.75;;;5.63;;
84021;SDS011;74108;48.636;9.492;2024-01-07T09:52:04;9.77;;;5.63;;
84021;SDS011;74108;48.636;9.492;2024-01-07T09:54:30;11.25;;;4.95;;
84021;SDS011;74108;48.636;9.492;2024-01-07T09:57:00;10.48;;;5.43;;
84021;SDS011;74108;48.636;9.492;2024-01-07T09:59:28;10.90;;;5.35;;
84021;SDS011;74108;48.636;9.492;2024-01-07T10:01:54;8.27;;;4.55;;
84021;SDS011;74108;48.636;9.492;2024-01-07T10:04:20;11.52;;;5.85;;
84021;SDS011;74108;48.636;9.492;2024-01-07T10:06:46;9.82;;;4.93;;
84021;SDS011;74108;48.636;9.492;2024-01-07T10:09:13;9.55;;;5.18;;
84021;SDS011;74108;48.636;9.492;2024-01-07T10:11:40;9.20;;;4.93;;
84021;SDS011;74108;48.636;9.492;2024-01-07T10:14:05;9.57;;;5.18;;
84021;SDS011;74108;48.636;9.492;2024-01-07T10:16:31;10.45;;;4.82;;
84021;SDS011;74108;48.636;9.492;2024-01-07T10:18:58;10.50;;;5.38;;
84021;SDS011;74108;48.636;9.492;2024-01-07T10:21:23;10.43;;;5.38;;
84021;SDS011;74108;48.636;9.492;2024-01-07T10:23:49;9.52;;;4.47;;
84021;SDS011;74108;48.636;9.492;2024-01-07T10:26:33;10.60;;;5.22;;
84021;SDS011;74108;48.636;9.492;2024-01-07T10:28:58;10.23;;;5.40;;
84021;SDS011;74108;48.636;9.492;2024-01-07T10:31:24;8.68;;;5.03;;
84021;SDS011;74108;48.636;9.492;2024-01-07T10:33:49;9.13;;;4.90;;
84021;SDS011;74108;48.636;9.492;2024-01-07T10:36:14;9.95;;;5.18;;
84021;SDS011;74108;48.636;9.492;2024-01-07T10:38:41;9.73;;;4.80;;
84021;SDS011;74108;48.636;9.492;2024-01-07T10:41:09;10.63;;;5.30;;
84021;SDS011;74108;48.636;9.492;2024-01-07T10:43:37;11.50;;;5.25;;
84021;SDS011;74108;48.636;9.492;2024-01-07T10:46:04;10.30;;;5.03;;
84021;SDS011;74108;48.636;9.492;2024-01-07T10:48:30;11.20;;;5.13;;
84021;SDS011;74108;48.636;9.492;2024-01-07T10:51:01;8.80;;;4.90;;
84021;SDS011;74108;48.636;9.492;2024-01-07T10:53:28;12.07;;;5.22;;
84021;SDS011;74108;48.636;9.492;2024-01-07T10:55:59;11.07;;;5.07;;
84021;SDS011;74108;48.636;9.492;2024-01-07T10:58:30;11.00;;;4.82;;
84021;SDS011;74108;48.636;9.492;2024-01-07T11:00:57;9.35;;;4.72;;
84021;SDS011;74108;48.636;9.492;2024-01-07T11:08:54;10.88;;;5.60;;
84021;SDS011;74108;48.636;9.492;2024-01-07T11:11:26;7.80;;;4.50;;
84021;SDS011;74108;48.636;9.492;2024-01-07T11:13:57;8.93;;;5.03;;
84021;SDS011;74108;48.636;9.492;2024-01-07T11:16:41;8.68;;;4.53;;
84021;SDS011;74108;48.636;9.492;2024-01-07T11:19:08;10.32;;;5.25;;
84021;SDS011;74108;48.636;9.492;2024-01-07T11:21:33;10.02;;;5.20;;
84021;SDS011;74108;48.636;9.492;2024-01-07T11:23:59;9.05;;;4.90;;
84021;SDS011;74108;48.636;9.492;2024-01-07T11:26:28;9.18;;;4.63;;
84021;SDS011;74108;48.636;9.492;2024-01-07T11:28:54;10.00;;;4.70;;
84021;SDS011;74108;48.636;9.492;2024-01-07T11:31:42;9.00;;;5.03;;
84021;SDS011;74108;48.636;9.492;2024-01-07T11:34:08;8.88;;;4.80;;
84021;SDS011;74108;48.636;9.492;2024-01-07T11:36:37;9.52;;;5.05;;
84021;SDS011;74108;48.636;9.492;2024-01-07T11:39:03;9.10;;;4.90;;
84021;SDS011;74108;48.636;9.492;2024-01-07T11:41:34;7.80;;;4.90;;
84021;SDS011;74108;48.636;9.492;2024-01-07T11:44:00;8.65;;;4.68;;
84021;SDS011;74108;48.636;9.492;2024-01-07T11:46:27;10.85;;;5.45;;
84021;SDS011;74108;48.636;9.492;2024-01-07T11:48:54;8.93;;;4.57;;
84021;SDS011;74108;48.636;9.492;2024-01-07T11:51:30;9.27;;;4.97;;
84021;SDS011;74108;48.636;9.492;2024-01-07T11:53:57;9.98;;;4.75;;
84021;SDS011;74108;48.636;9.492;2024-01-07T11:56:24;9.00;;;4.88;;
84021;SDS011;74108;48.636;9.492;2024-01-07T11:58:50;8.80;;;4.82;;
84021;SDS011;74108;48.636;9.492;2024-01-07T12:01:16;9.25;;;4.93;;
84021;SDS011;74108;48.636;9.492;2024-01-07T12:03:43;7.90;;;4.38;;
84021;SDS011;74108;48.636;9.492;2024-01-07T12:06:09;9.68;;;4.78;;
84021;SDS011;74108;48.636;9.492;2024-01-07T12:08:42;10.80;;;5.10;;
84021;SDS011;74108;48.636;9.492;2024-01-07T12:11:08;7.95;;;4.28;;
84021;SDS011;74108;48.636;9.492;2024-01-07T12:13:37;8.25;;;4.43;;
84021;SDS011;74108;48.636;9.492;2024-01-07T12:16:04;8.75;;;4.38;;
84021;SDS011;74108;48.636;9.492;2024-01-07T12:18:30;9.25;;;4.90;;
84021;SDS011;74108;48.636;9.492;2024-01-07T12:20:59;8.25;;;4.38;;
84021;SDS011;74108;48.636;9.492;2024-01-07T12:23:25;9.60;;;4.70;;
84021;SDS011;74108;48.636;9.492;2024-01-07T12:25:53;9.32;;;5.25;;
84021;SDS011;74108;48.636;9.492;2024-01-07T12:28:18;8.50;;;4.57;;
84021;SDS011;74108;48.636;9.492;2024-01-07T12:30:44;9.65;;;4.85;;
84021;SDS011;74108;48.636;9.492;2024-01-07T12:33:15;8.32;;;4.60;;
84021;SDS011;74108;48.636;9.492;2024-01-07T12:35:43;9.10;;;4.75;;
84021;SDS011;74108;48.636;9.492;2024-01-07T12:38:09;10.73;;;4.82;;
84021;SDS011;74108;48.636;9.492;2024-01-07T12:40:35;10.75;;;5.25;;
84021;SDS011;74108;48.636;9.492;2024-01-07T12:43:02;10.88;;;5.63;;
84021;SDS011;74108;48.636;9.492;2024-01-07T12:45:28;10.95;;;5.38;;
84021;SDS011;74108;48.636;9.492;2024-01-07T12:47:53;9.68;;;5.10;;
84021;SDS011;74108;48.636;9.492;2024-01-07T12:50:20;9.57;;;5.32;;
84021;SDS011;74108;48.636;9.492;2024-01-07T12:52:48;9.73;;;5.20;;
84021;SDS011;74108;48.636;9.492;2024-01-07T12:55:13;9.65;;;5.07;;
84021;SDS011;74108;48.636;9.492;2024-01-07T12:57:39;9.52;;;5.35;;
84021;SDS011;74108;48.636;9.492;2024-01-07T13:00:04;10.75;;;5.13;;
84021;SDS011;74108;48.636;9.492;2024-01-07T13:02:34;11.73;;;5.22;;
84021;SDS011;74108;48.636;9.492;2024-01-07T13:04:59;9.90;;;5.40;;
84021;SDS011;74108;48.636;9.492;2024-01-07T13:07:25;12.52;;;6.05;;
84021;SDS011;74108;48.636;9.492;2024-01-07T13:09:50;13.07;;;6.65;;
84021;SDS011;74108;48.636;9.492;2024-01-07T13:12:17;10.40;;;5.68;;
84021;SDS011;74108;48.636;9.492;2024-01-07T13:14:43;10.32;;;5.90;;
84021;SDS011;74108;48.636;9.492;2024-01-07T13:17:08;10.05;;;5.70;;
84021;SDS011;74108;48.636;9.492;2024-01-07T13:19:35;11.00;;;5.97;;
84021;SDS011;74108;48.636;9.492;2024-01-07T13:22:02;10.32;;;5.53;;
84021;SDS011;74108;48.636;9.492;2024-01-07T13:24:27;10.38;;;5.57;;
84021;SDS011;74108;48.636;9.492;2024-01-07T13:26:53;9.75;;;5.25;;
84021;SDS011;74108;48.636;9.492;2024-01-07T13:29:18;10.38;;;5.68;;
84021;SDS011;74108;48.636;9.492;2024-01-07T13:31:43;11.02;;;6.15;;
84021;SDS011;74108;48.636;9.492;2024-01-07T13:34:09;12.07;;;6.25;;
84021;SDS011;74108;48.636;9.492;2024-01-07T13:36:34;12.18;;;6.15;;
84021;SDS011;74108;48.636;9.492;2024-01-07T13:38:59;11.05;;;6.18;;
84021;SDS011;74108;48.636;9.492;2024-01-07T13:41:25;10.25;;;5.82;;
84021;SDS011;74108;48.636;9.492;2024-01-07T13:43:53;13.02;;;7.15;;
84021;SDS011;74108;48.636;9.492;2024-01-07T13:46:21;12.90;;;5.95;;
84021;SDS011;74108;48.636;9.492;2024-01-07T13:48:48;10.75;;;6.20;;
84021;SDS011;74108;48.636;9.492;2024-01-07T13:51:13;11.93;;;6.25;;
84021;SDS011;74108;48.636;9.492;2024-01-07T13:53:39;10.93;;;5.82;;
84021;SDS011;74108;48.636;9.492;2024-01-07T13:56:04;12.65;;;5.97;;
84021;SDS011;74108;48.636;9.492;2024-01-07T13:58:31;15.27;;;7.03;;
84021;SDS011;74108;48.636;9.492;2024-01-07T14:00:57;15.50;;;6.47;;
84021;SDS011;74108;48.636;9.492;2024-01-07T14:03:22;12.95;;;6.50;;
84021;SDS011;74108;48.636;9.492;2024-01-07T14:05:48;12.57;;;5.80;;
84021;SDS011;74108;48.636;9.492;2024-01-07T14:08:13;11.35;;;6.03;;
84021;SDS011;74108;48.636;9.492;2024-01-07T14:10:39;12.82;;;5.93;;
84021;SDS011;74108;48.636;9.492;2024-01-07T14:13:04;13.55;;;6.65;;
84021;SDS011;74108;48.636;9.492;2024-01-07T14:15:30;13.45;;;6.05;;
84021;SDS011;74108;48.636;9.492;2024-01-07T14:17:55;13.30;;;6.57;;
84021;SDS011;74108;48.636;9.492;2024-01-07T14:20:21;14.05;;;7.10;;
84021;SDS011;74108;48.636;9.492;2024-01-07T14:22:46;15.20;;;6.82;;
84021;SDS011;74108;48.636;9.492;2024-01-07T14:25:12;17.05;;;7.15;;
84021;SDS011;74108;48.636;9.492;2024-01-07T14:27:39;15.73;;;7.20;;
84021;SDS011;74108;48.636;9.492;2024-01-07T14:30:05;12.52;;;6.40;;
84021;SDS011;74108;48.636;9.492;2024-01-07T14:32:32;14.20;;;7.18;;
84021;SDS011;74108;48.636;9.492;2024-01-07T14:34:58;16.25;;;7.65;;
84021;SDS011;74108;48.636;9.492;2024-01-07T14:37:23;13.75;;;6.82;;